sensor_id;sensor_type;location;lat;lon;timestamp;P1;durP1;ratioP1;P2;durP2;ratioP2
43664;SDS011;29263;48.172;11.484;2023-04-12T00:00:22;4.87;;;1.30;;
43664;SDS011;29263;48.172;11.484;2023-04-12T00:02:48;2.17;;;1.17;;
43664;SDS011;29263;48.172;11.484;2023-04-12T00:05:18;3.00;;;1.20;;
43664;SDS011;29263;48.172;11.484;2023-04-12T00:07:49;3.90;;;1.30;;
43664;SDS011;29263;48.172;11.484;2023-04-12T00:10:17;1.60;;;1.37;;
43664;SDS011;29263;48.172;11.484;2023-04-12T00:12:43;3.27;;;1.30;;
43664;SDS011;29263;48.172;11.484;2023-04-12T00:15:09;1.93;;;0.90;;
43664;SDS011;29263;48.172;11.484;2023-04-12T00:17:35;3.70;;;1.10;;
43664;SDS011;29263;48.172;11.484;2023-04-12T00:20:01;1.30;;;0.90;;
43664;SDS011;29263;48.172;11.484;2023-04-12T00:22:35;1.87;;;1.00;;
43664;SDS011;29263;48.172;11.484;2023-04-12T00:25:01;1.53;;;1.00;;
43664;SDS011;29263;48.172;11.484;2023-04-12T00:27:27;3.50;;;1.23;;
43664;SDS011;29263;48.172;11.484;2023-04-12T00:29:52;3.10;;;1.27;;
43664;SDS011;29263;48.172;11.484;2023-04-12T00:32:18;4.60;;;1.53;;
43664;SDS011;29263;48.172;11.484;2023-04-12T00:34:44;2.23;;;1.23;;
43664;SDS011;29263;48.172;11.484;2023-04-12T00:37:10;3.73;;;1.80;;
43664;SDS011;29263;48.172;11.484;2023-04-12T00:39:35;4.67;;;1.07;;
43664;SDS011;29263;48.172;11.484;2023-04-12T00:42:04;1.83;;;1.07;;
43664;SDS011;29263;48.172;11.484;2023-04-12T00:44:31;1.93;;;1.13;;
43664;SDS011;29263;48.172;11.484;2023-04-12T00:46:57;1.67;;;0.97;;
43664;SDS011;29263;48.172;11.484;2023-04-12T00:49:24;3.67;;;1.10;;
43664;SDS011;29263;48.172;11.484;2023-04-12T00:51:56;2.40;;;1.07;;
43664;SDS011;29263;48.172;11.484;2023-04-12T00:54:27;2.50;;;1.00;;
43664;SDS011;29263;48.172;11.484;2023-04-12T00:56:57;1.90;;;1.00;;
43664;SDS011;29263;48.172;11.484;2023-04-12T00:59:24;3.40;;;1.03;;
43664;SDS011;29263;48.172;11.484;2023-04-12T01:01:50;2.53;;;0.83;;
43664;SDS011;29263;48.172;11.484;2023-04-12T01:04:19;3.07;;;1.03;;
43664;SDS011;29263;48.172;11.484;2023-04-12T01:15:06;3.13;;;0.80;;
43664;SDS011;29263;48.172;11.484;2023-04-12T01:17:38;1.88;;;1.38;;
43664;SDS011;29263;48.172;11.484;2023-04-12T01:22:48;1.33;;;1.00;;
43664;SDS011;29263;48.172;11.484;2023-04-12T01:25:37;2.90;;;0.90;;
43664;SDS011;29263;48.172;11.484;2023-04-12T01:28:17;1.73;;;0.70;;
43664;SDS011;29263;48.172;11.484;2023-04-12T01:30:48;1.93;;;0.90;;
43664;SDS011;29263;48.172;11.484;2023-04-12T01:33:15;1.73;;;0.60;;
43664;SDS011;29263;48.172;11.484;2023-04-12T01:35:42;0.93;;;0.60;;
43664;SDS011;29263;48.172;11.484;2023-04-12T01:38:09;3.70;;;1.00;;
43664;SDS011;29263;48.172;11.484;2023-04-12T01:40:35;1.53;;;0.77;;
43664;SDS011;29263;48.172;11.484;2023-04-12T01:43:08;2.07;;;0.90;;
43664;SDS011;29263;48.172;11.484;2023-04-12T01:45:35;1.40;;;0.70;;
43664;SDS011;29263;48.172;11.484;2023-04-12T01:48:02;2.07;;;0.90;;
43664;SDS011;29263;48.172;11.484;2023-04-12T01:55:57;3.47;;;1.20;;
43664;SDS011;29263;48.172;11.484;2023-04-12T01:58:26;2.07;;;0.80;;
43664;SDS011;29263;48.172;11.484;2023-04-12T02:00:54;2.60;;;0.90;;
43664;SDS011;29263;48.172;11.484;2023-04-12T02:03:22;1.10;;;0.90;;
43664;SDS011;29263;48.172;11.484;2023-04-12T02:05:49;4.17;;;1.00;;
43664;SDS011;29263;48.172;11.484;2023-04-12T02:08:16;2.60;;;0.77;;
43664;SDS011;29263;48.172;11.484;2023-04-12T02:10:41;3.10;;;0.97;;
43664;SDS011;29263;48.172;11.484;2023-04-12T02:13:07;1.93;;;1.10;;
43664;SDS011;29263;48.172;11.484;2023-04-12T02:15:33;2.90;;;0.93;;
43664;SDS011;29263;48.172;11.484;2023-04-12T02:17:58;1.47;;;0.67;;
43664;SDS011;29263;48.172;11.484;2023-04-12T02:20:25;2.37;;;1.10;;
43664;SDS011;29263;48.172;11.484;2023-04-12T02:22:51;2.77;;;1.03;;
43664;SDS011;29263;48.172;11.484;2023-04-12T02:25:17;2.30;;;1.20;;
43664;SDS011;29263;48.172;11.484;2023-04-12T02:27:43;3.30;;;0.97;;
43664;SDS011;29263;48.172;11.484;2023-04-12T02:30:10;3.57;;;1.20;;
43664;SDS011;29263;48.172;11.484;2023-04-12T02:32:36;2.87;;;0.90;;
43664;SDS011;29263;48.172;11.484;2023-04-12T02:35:07;1.63;;;1.00;;
43664;SDS011;29263;48.172;11.484;2023-04-12T02:37:34;2.67;;;1.33;;
43664;SDS011;29263;48.172;11.484;2023-04-12T02:40:01;3.07;;;0.93;;
43664;SDS011;29263;48.172;11.484;2023-04-12T02:42:28;2.73;;;0.90;;
43664;SDS011;29263;48.172;11.484;2023-04-12T02:44:54;1.80;;;1.00;;
43664;SDS011;29263;48.172;11.484;2023-04-12T02:47:20;1.13;;;0.77;;
43664;SDS011;29263;48.172;11.484;2023-04-12T02:49:45;1.53;;;0.90;;
43664;SDS011;29263;48.172;11.484;2023-04-12T02:52:14;0.97;;;0.77;;
43664;SDS011;29263;48.172;11.484;2023-04-12T02:54:40;3.10;;;0.77;;
43664;SDS011;29263;48.172;11.484;2023-04-12T02:57:06;5.33;;;1.10;;
43664;SDS011;29263;48.172;11.484;2023-04-12T02:59:32;1.77;;;0.70;;
43664;SDS011;29263;48.172;11.484;2023-04-12T03:01:57;1.40;;;0.80;;
43664;SDS011;29263;48.172;11.484;2023-04-12T03:04:23;1.43;;;1.07;;
43664;SDS011;29263;48.172;11.484;2023-04-12T03:06:53;2.80;;;0.90;;
43664;SDS011;29263;48.172;11.484;2023-04-12T03:09:19;4.00;;;0.90;;
43664;SDS011;29263;48.172;11.484;2023-04-12T03:11:45;3.20;;;0.87;;
43664;SDS011;29263;48.172;11.484;2023-04-12T03:14:11;3.60;;;1.03;;
43664;SDS011;29263;48.172;11.484;2023-04-12T03:16:36;2.77;;;0.93;;
43664;SDS011;29263;48.172;11.484;2023-04-12T03:19:02;2.43;;;1.10;;
43664;SDS011;29263;48.172;11.484;2023-04-12T03:21:28;1.43;;;0.90;;
43664;SDS011;29263;48.172;11.484;2023-04-12T03:23:53;2.30;;;0.63;;
43664;SDS011;29263;48.172;11.484;2023-04-12T03:26:19;1.90;;;1.00;;
43664;SDS011;29263;48.172;11.484;2023-04-12T03:28:45;3.83;;;1.17;;
43664;SDS011;29263;48.172;11.484;2023-04-12T03:31:11;3.50;;;1.07;;
43664;SDS011;29263;48.172;11.484;2023-04-12T03:33:37;3.43;;;0.90;;
43664;SDS011;29263;48.172;11.484;2023-04-12T03:36:03;2.83;;;1.27;;
43664;SDS011;29263;48.172;11.484;2023-04-12T03:38:30;3.37;;;0.90;;
43664;SDS011;29263;48.172;11.484;2023-04-12T03:40:55;2.63;;;0.97;;
43664;SDS011;29263;48.172;11.484;2023-04-12T03:43:21;4.00;;;1.50;;
43664;SDS011;29263;48.172;11.484;2023-04-12T03:45:47;2.17;;;0.90;;
43664;SDS011;29263;48.172;11.484;2023-04-12T03:48:12;2.53;;;0.93;;
43664;SDS011;29263;48.172;11.484;2023-04-12T03:50:39;3.03;;;0.80;;
43664;SDS011;29263;48.172;11.484;2023-04-12T03:53:12;3.50;;;1.00;;
43664;SDS011;29263;48.172;11.484;2023-04-12T03:55:38;2.53;;;0.97;;
43664;SDS011;29263;48.172;11.484;2023-04-12T03:58:04;1.63;;;1.10;;
43664;SDS011;29263;48.172;11.484;2023-04-12T04:00:30;4.13;;;1.00;;
43664;SDS011;29263;48.172;11.484;2023-04-12T04:02:56;2.50;;;0.90;;
43664;SDS011;29263;48.172;11.484;2023-04-12T04:05:26;3.47;;;1.10;;
43664;SDS011;29263;48.172;11.484;2023-04-12T04:07:53;4.23;;;1.37;;
43664;SDS011;29263;48.172;11.484;2023-04-12T04:10:20;3.43;;;0.70;;
43664;SDS011;29263;48.172;11.484;2023-04-12T04:12:45;2.27;;;1.20;;
43664;SDS011;29263;48.172;11.484;2023-04-12T04:15:13;3.07;;;0.90;;
43664;SDS011;29263;48.172;11.484;2023-04-12T04:17:38;2.57;;;1.03;;
43664;SDS011;29263;48.172;11.484;2023-04-12T04:20:05;3.87;;;1.40;;
43664;SDS011;29263;48.172;11.484;2023-04-12T04:22:32;3.13;;;1.40;;
43664;SDS011;29263;48.172;11.484;2023-04-12T04:24:58;2.37;;;1.03;;
43664;SDS011;29263;48.172;11.484;2023-04-12T04:27:25;2.40;;;1.23;;
43664;SDS011;29263;48.172;11.484;2023-04-12T04:29:54;1.90;;;0.80;;
43664;SDS011;29263;48.172;11.484;2023-04-12T04:32:22;3.03;;;1.10;;
43664;SDS011;29263;48.172;11.484;2023-04-12T04:34:49;4.40;;;1.07;;
43664;SDS011;29263;48.172;11.484;2023-04-12T04:37:15;2.53;;;0.87;;
43664;SDS011;29263;48.172;11.484;2023-04-12T04:39:42;1.77;;;0.90;;
43664;SDS011;29263;48.172;11.484;2023-04-12T04:42:08;2.10;;;1.33;;
43664;SDS011;29263;48.172;11.484;2023-04-12T04:44:35;2.90;;;0.97;;
43664;SDS011;29263;48.172;11.484;2023-04-12T04:47:01;5.73;;;1.30;;
43664;SDS011;29263;48.172;11.484;2023-04-12T04:49:27;2.63;;;1.23;;
43664;SDS011;29263;48.172;11.484;2023-04-12T04:51:53;6.73;;;1.10;;
43664;SDS011;29263;48.172;11.484;2023-04-12T04:54:18;1.90;;;0.80;;
43664;SDS011;29263;48.172;11.484;2023-04-12T04:56:44;2.23;;;1.57;;
43664;SDS011;29263;48.172;11.484;2023-04-12T04:59:10;3.70;;;0.87;;
43664;SDS011;29263;48.172;11.484;2023-04-12T05:01:35;2.37;;;0.67;;
43664;SDS011;29263;48.172;11.484;2023-04-12T05:04:01;3.30;;;1.00;;
43664;SDS011;29263;48.172;11.484;2023-04-12T05:06:27;3.77;;;1.13;;
43664;SDS011;29263;48.172;11.484;2023-04-12T05:08:52;2.80;;;1.00;;
43664;SDS011;29263;48.172;11.484;2023-04-12T05:11:18;1.20;;;1.00;;
43664;SDS011;29263;48.172;11.484;2023-04-12T05:13:45;2.93;;;1.70;;
43664;SDS011;29263;48.172;11.484;2023-04-12T05:16:10;2.87;;;1.00;;
43664;SDS011;29263;48.172;11.484;2023-04-12T05:18:36;1.80;;;0.97;;
43664;SDS011;29263;48.172;11.484;2023-04-12T05:21:02;2.43;;;1.00;;
43664;SDS011;29263;48.172;11.484;2023-04-12T05:23:29;2.00;;;0.90;;
43664;SDS011;29263;48.172;11.484;2023-04-12T05:25:59;2.43;;;0.93;;
43664;SDS011;29263;48.172;11.484;2023-04-12T05:28:24;2.93;;;1.23;;
43664;SDS011;29263;48.172;11.484;2023-04-12T05:30:50;2.03;;;0.87;;
43664;SDS011;29263;48.172;11.484;2023-04-12T05:33:16;3.60;;;0.90;;
43664;SDS011;29263;48.172;11.484;2023-04-12T05:35:41;2.43;;;0.63;;
43664;SDS011;29263;48.172;11.484;2023-04-12T05:38:07;1.50;;;0.70;;
43664;SDS011;29263;48.172;11.484;2023-04-12T05:40:32;3.27;;;1.07;;
43664;SDS011;29263;48.172;11.484;2023-04-12T05:43:00;3.10;;;0.90;;
43664;SDS011;29263;48.172;11.484;2023-04-12T05:45:26;4.07;;;1.00;;
43664;SDS011;29263;48.172;11.484;2023-04-12T05:47:52;1.87;;;1.00;;
43664;SDS011;29263;48.172;11.484;2023-04-12T05:50:19;5.83;;;0.80;;
43664;SDS011;29263;48.172;11.484;2023-04-12T05:52:45;2.93;;;1.10;;
43664;SDS011;29263;48.172;11.484;2023-04-12T05:55:13;2.27;;;0.90;;
43664;SDS011;29263;48.172;11.484;2023-04-12T05:57:40;1.60;;;1.00;;
43664;SDS011;29263;48.172;11.484;2023-04-12T06:00:06;4.50;;;1.03;;
43664;SDS011;29263;48.172;11.484;2023-04-12T06:02:37;2.30;;;1.13;;
43664;SDS011;29263;48.172;11.484;2023-04-12T06:05:03;1.77;;;0.90;;
43664;SDS011;29263;48.172;11.484;2023-04-12T06:07:29;2.03;;;1.27;;
43664;SDS011;29263;48.172;11.484;2023-04-12T06:09:55;2.67;;;1.00;;
43664;SDS011;29263;48.172;11.484;2023-04-12T06:12:20;3.13;;;1.00;;
43664;SDS011;29263;48.172;11.484;2023-04-12T06:14:46;2.33;;;1.30;;
43664;SDS011;29263;48.172;11.484;2023-04-12T06:17:11;2.73;;;1.30;;
43664;SDS011;29263;48.172;11.484;2023-04-12T06:19:37;2.33;;;1.00;;
43664;SDS011;29263;48.172;11.484;2023-04-12T06:22:03;3.37;;;1.10;;
43664;SDS011;29263;48.172;11.484;2023-04-12T06:24:28;3.67;;;1.20;;
43664;SDS011;29263;48.172;11.484;2023-04-12T06:26:54;2.70;;;1.17;;
43664;SDS011;29263;48.172;11.484;2023-04-12T06:29:19;3.93;;;1.00;;
43664;SDS011;29263;48.172;11.484;2023-04-12T06:31:45;3.90;;;0.90;;
43664;SDS011;29263;48.172;11.484;2023-04-12T06:34:11;3.67;;;0.90;;
43664;SDS011;29263;48.172;11.484;2023-04-12T06:36:36;3.73;;;1.00;;
43664;SDS011;29263;48.172;11.484;2023-04-12T06:39:05;8.17;;;1.00;;
43664;SDS011;29263;48.172;11.484;2023-04-12T06:41:32;2.30;;;1.00;;
43664;SDS011;29263;48.172;11.484;2023-04-12T06:43:57;1.30;;;0.90;;
43664;SDS011;29263;48.172;11.484;2023-04-12T06:46:26;4.37;;;1.00;;
43664;SDS011;29263;48.172;11.484;2023-04-12T06:48:52;2.47;;;1.10;;
43664;SDS011;29263;48.172;11.484;2023-04-12T06:51:18;4.23;;;1.13;;
43664;SDS011;29263;48.172;11.484;2023-04-12T06:53:47;1.83;;;0.95;;
43664;SDS011;29263;48.172;11.484;2023-04-12T06:56:13;2.10;;;0.70;;
43664;SDS011;29263;48.172;11.484;2023-04-12T06:58:38;2.53;;;0.90;;
43664;SDS011;29263;48.172;11.484;2023-04-12T07:01:07;2.03;;;1.03;;
43664;SDS011;29263;48.172;11.484;2023-04-12T07:03:34;1.53;;;1.00;;
43664;SDS011;29263;48.172;11.484;2023-04-12T07:06:00;4.13;;;1.27;;
43664;SDS011;29263;48.172;11.484;2023-04-12T07:08:27;4.40;;;1.47;;
43664;SDS011;29263;48.172;11.484;2023-04-12T07:10:53;1.90;;;0.87;;
43664;SDS011;29263;48.172;11.484;2023-04-12T07:13:19;2.07;;;1.23;;
43664;SDS011;29263;48.172;11.484;2023-04-12T07:15:47;1.60;;;0.83;;
43664;SDS011;29263;48.172;11.484;2023-04-12T07:18:13;3.23;;;1.00;;
43664;SDS011;29263;48.172;11.484;2023-04-12T07:20:38;1.93;;;1.00;;
43664;SDS011;29263;48.172;11.484;2023-04-12T07:23:04;1.77;;;1.00;;
43664;SDS011;29263;48.172;11.484;2023-04-12T07:25:29;2.87;;;1.07;;
43664;SDS011;29263;48.172;11.484;2023-04-12T07:27:55;2.80;;;0.93;;
43664;SDS011;29263;48.172;11.484;2023-04-12T07:30:21;2.63;;;1.13;;
43664;SDS011;29263;48.172;11.484;2023-04-12T07:32:47;2.53;;;1.20;;
43664;SDS011;29263;48.172;11.484;2023-04-12T07:35:13;1.87;;;1.00;;
43664;SDS011;29263;48.172;11.484;2023-04-12T07:37:39;1.97;;;0.90;;
43664;SDS011;29263;48.172;11.484;2023-04-12T07:40:05;3.73;;;1.70;;
43664;SDS011;29263;48.172;11.484;2023-04-12T07:42:31;3.53;;;1.10;;
43664;SDS011;29263;48.172;11.484;2023-04-12T07:44:57;4.03;;;1.30;;
43664;SDS011;29263;48.172;11.484;2023-04-12T07:47:22;3.57;;;1.20;;
43664;SDS011;29263;48.172;11.484;2023-04-12T07:49:48;1.80;;;0.90;;
43664;SDS011;29263;48.172;11.484;2023-04-12T07:52:13;2.50;;;1.30;;
43664;SDS011;29263;48.172;11.484;2023-04-12T07:54:39;1.50;;;1.00;;
43664;SDS011;29263;48.172;11.484;2023-04-12T07:57:06;2.10;;;0.97;;
43664;SDS011;29263;48.172;11.484;2023-04-12T07:59:32;3.57;;;1.00;;
43664;SDS011;29263;48.172;11.484;2023-04-12T08:01:58;2.43;;;1.13;;
43664;SDS011;29263;48.172;11.484;2023-04-12T08:04:24;1.67;;;1.10;;
43664;SDS011;29263;48.172;11.484;2023-04-12T08:06:52;3.43;;;1.10;;
43664;SDS011;29263;48.172;11.484;2023-04-12T08:09:18;3.10;;;1.20;;
43664;SDS011;29263;48.172;11.484;2023-04-12T08:11:43;3.07;;;1.20;;
43664;SDS011;29263;48.172;11.484;2023-04-12T08:14:09;1.90;;;1.10;;
43664;SDS011;29263;48.172;11.484;2023-04-12T08:16:35;4.10;;;1.43;;
43664;SDS011;29263;48.172;11.484;2023-04-12T08:19:00;2.40;;;1.13;;
43664;SDS011;29263;48.172;11.484;2023-04-12T08:21:26;4.43;;;1.30;;
43664;SDS011;29263;48.172;11.484;2023-04-12T08:23:52;2.30;;;0.93;;
43664;SDS011;29263;48.172;11.484;2023-04-12T08:26:17;1.33;;;1.00;;
43664;SDS011;29263;48.172;11.484;2023-04-12T08:28:43;3.87;;;1.07;;
43664;SDS011;29263;48.172;11.484;2023-04-12T08:31:08;3.17;;;1.10;;
43664;SDS011;29263;48.172;11.484;2023-04-12T08:33:35;2.07;;;1.13;;
43664;SDS011;29263;48.172;11.484;2023-04-12T08:36:00;1.80;;;0.90;;
43664;SDS011;29263;48.172;11.484;2023-04-12T08:38:26;3.17;;;1.10;;
43664;SDS011;29263;48.172;11.484;2023-04-12T08:40:52;2.63;;;0.87;;
43664;SDS011;29263;48.172;11.484;2023-04-12T08:43:17;1.13;;;0.80;;
43664;SDS011;29263;48.172;11.484;2023-04-12T08:45:44;1.33;;;0.90;;
43664;SDS011;29263;48.172;11.484;2023-04-12T08:48:10;1.77;;;1.00;;
43664;SDS011;29263;48.172;11.484;2023-04-12T08:50:35;1.30;;;0.80;;
43664;SDS011;29263;48.172;11.484;2023-04-12T08:53:01;1.90;;;0.77;;
43664;SDS011;29263;48.172;11.484;2023-04-12T08:55:27;1.40;;;0.80;;
43664;SDS011;29263;48.172;11.484;2023-04-12T08:57:53;2.03;;;0.90;;
43664;SDS011;29263;48.172;11.484;2023-04-12T09:02:48;1.53;;;0.80;;
43664;SDS011;29263;48.172;11.484;2023-04-12T09:05:14;4.83;;;0.80;;
43664;SDS011;29263;48.172;11.484;2023-04-12T09:07:40;2.90;;;1.30;;
43664;SDS011;29263;48.172;11.484;2023-04-12T09:10:06;4.37;;;1.00;;
43664;SDS011;29263;48.172;11.484;2023-04-12T09:12:32;1.10;;;0.80;;
43664;SDS011;29263;48.172;11.484;2023-04-12T09:17:34;1.60;;;0.73;;
43664;SDS011;29263;48.172;11.484;2023-04-12T09:20:22;1.10;;;0.67;;
43664;SDS011;29263;48.172;11.484;2023-04-12T09:22:49;1.30;;;0.80;;
43664;SDS011;29263;48.172;11.484;2023-04-12T09:25:16;1.43;;;0.70;;
43664;SDS011;29263;48.172;11.484;2023-04-12T09:27:45;2.23;;;0.90;;
43664;SDS011;29263;48.172;11.484;2023-04-12T09:30:12;2.03;;;0.68;;
43664;SDS011;29263;48.172;11.484;2023-04-12T09:32:39;1.17;;;1.00;;
43664;SDS011;29263;48.172;11.484;2023-04-12T09:35:05;1.67;;;1.07;;
43664;SDS011;29263;48.172;11.484;2023-04-12T09:37:31;3.27;;;1.00;;
43664;SDS011;29263;48.172;11.484;2023-04-12T09:39:57;1.97;;;0.97;;
43664;SDS011;29263;48.172;11.484;2023-04-12T09:42:32;1.67;;;1.00;;
43664;SDS011;29263;48.172;11.484;2023-04-12T09:44:58;4.33;;;0.90;;
43664;SDS011;29263;48.172;11.484;2023-04-12T09:47:37;2.30;;;0.73;;
43664;SDS011;29263;48.172;11.484;2023-04-12T09:50:05;1.13;;;0.70;;
43664;SDS011;29263;48.172;11.484;2023-04-12T09:52:35;1.73;;;0.88;;
43664;SDS011;29263;48.172;11.484;2023-04-12T09:55:02;1.37;;;0.80;;
43664;SDS011;29263;48.172;11.484;2023-04-12T09:57:33;1.80;;;1.10;;
43664;SDS011;29263;48.172;11.484;2023-04-12T10:00:10;1.27;;;0.77;;
43664;SDS011;29263;48.172;11.484;2023-04-12T10:02:44;1.35;;;0.68;;
43664;SDS011;29263;48.172;11.484;2023-04-12T10:05:15;2.55;;;0.60;;
43664;SDS011;29263;48.172;11.484;2023-04-12T10:07:42;1.08;;;0.40;;
43664;SDS011;29263;48.172;11.484;2023-04-12T10:10:09;2.90;;;0.60;;
43664;SDS011;29263;48.172;11.484;2023-04-12T10:12:37;1.92;;;0.80;;
43664;SDS011;29263;48.172;11.484;2023-04-12T10:15:04;1.15;;;0.70;;
43664;SDS011;29263;48.172;11.484;2023-04-12T10:17:39;2.63;;;0.77;;
43664;SDS011;29263;48.172;11.484;2023-04-12T10:20:25;0.82;;;0.70;;
43664;SDS011;29263;48.172;11.484;2023-04-12T10:22:51;1.95;;;0.75;;
43664;SDS011;29263;48.172;11.484;2023-04-12T10:25:24;0.85;;;0.50;;
43664;SDS011;29263;48.172;11.484;2023-04-12T10:27:51;2.03;;;0.52;;
43664;SDS011;29263;48.172;11.484;2023-04-12T10:30:26;1.00;;;0.68;;
43664;SDS011;29263;48.172;11.484;2023-04-12T10:38:18;1.05;;;0.50;;
43664;SDS011;29263;48.172;11.484;2023-04-12T10:43:32;2.38;;;0.40;;
43664;SDS011;29263;48.172;11.484;2023-04-12T10:45:57;2.10;;;0.60;;
43664;SDS011;29263;48.172;11.484;2023-04-12T10:53:49;1.67;;;0.60;;
43664;SDS011;29263;48.172;11.484;2023-04-12T10:58:57;2.38;;;0.55;;
43664;SDS011;29263;48.172;11.484;2023-04-12T11:01:24;1.55;;;0.40;;
43664;SDS011;29263;48.172;11.484;2023-04-12T11:09:29;1.15;;;0.52;;
43664;SDS011;29263;48.172;11.484;2023-04-12T11:19:42;0.88;;;0.45;;
43664;SDS011;29263;48.172;11.484;2023-04-12T11:22:11;0.85;;;0.40;;
43664;SDS011;29263;48.172;11.484;2023-04-12T11:24:38;0.60;;;0.47;;
43664;SDS011;29263;48.172;11.484;2023-04-12T11:27:12;0.75;;;0.40;;
43664;SDS011;29263;48.172;11.484;2023-04-12T11:29:40;1.17;;;0.55;;
43664;SDS011;29263;48.172;11.484;2023-04-12T11:32:16;2.83;;;0.57;;
43664;SDS011;29263;48.172;11.484;2023-04-12T11:34:43;0.88;;;0.57;;
43664;SDS011;29263;48.172;11.484;2023-04-12T11:37:14;0.85;;;0.50;;
43664;SDS011;29263;48.172;11.484;2023-04-12T11:39:42;3.85;;;0.90;;
43664;SDS011;29263;48.172;11.484;2023-04-12T11:42:30;1.52;;;0.40;;
43664;SDS011;29263;48.172;11.484;2023-04-12T11:48:29;1.02;;;0.40;;
43664;SDS011;29263;48.172;11.484;2023-04-12T11:50:55;0.93;;;0.55;;
43664;SDS011;29263;48.172;11.484;2023-04-12T11:53:27;1.50;;;0.50;;
43664;SDS011;29263;48.172;11.484;2023-04-12T11:55:54;0.90;;;0.40;;
43664;SDS011;29263;48.172;11.484;2023-04-12T11:58:25;0.82;;;0.43;;
43664;SDS011;29263;48.172;11.484;2023-04-12T12:03:18;3.08;;;0.50;;
43664;SDS011;29263;48.172;11.484;2023-04-12T12:05:44;2.85;;;1.25;;
43664;SDS011;29263;48.172;11.484;2023-04-12T12:08:11;0.93;;;0.50;;
43664;SDS011;29263;48.172;11.484;2023-04-12T12:10:37;1.33;;;0.65;;
43664;SDS011;29263;48.172;11.484;2023-04-12T12:13:10;0.85;;;0.55;;
43664;SDS011;29263;48.172;11.484;2023-04-12T12:19:02;1.20;;;0.63;;
43664;SDS011;29263;48.172;11.484;2023-04-12T12:21:28;2.05;;;0.70;;
43664;SDS011;29263;48.172;11.484;2023-04-12T12:23:55;1.83;;;0.43;;
43664;SDS011;29263;48.172;11.484;2023-04-12T12:26:23;2.05;;;0.50;;
43664;SDS011;29263;48.172;11.484;2023-04-12T12:28:53;0.90;;;0.50;;
43664;SDS011;29263;48.172;11.484;2023-04-12T12:31:22;1.00;;;0.60;;
43664;SDS011;29263;48.172;11.484;2023-04-12T12:33:52;0.73;;;0.40;;
43664;SDS011;29263;48.172;11.484;2023-04-12T12:36:27;0.60;;;0.30;;
43664;SDS011;29263;48.172;11.484;2023-04-12T12:39:01;0.40;;;0.32;;
43664;SDS011;29263;48.172;11.484;2023-04-12T12:41:31;1.85;;;0.50;;
43664;SDS011;29263;48.172;11.484;2023-04-12T12:44:09;0.55;;;0.40;;
43664;SDS011;29263;48.172;11.484;2023-04-12T12:46:38;1.45;;;0.50;;
43664;SDS011;29263;48.172;11.484;2023-04-12T12:49:04;0.63;;;0.30;;
43664;SDS011;29263;48.172;11.484;2023-04-12T12:51:33;0.75;;;0.45;;
43664;SDS011;29263;48.172;11.484;2023-04-12T12:53:58;1.15;;;0.45;;
43664;SDS011;29263;48.172;11.484;2023-04-12T12:56:27;0.82;;;0.50;;
43664;SDS011;29263;48.172;11.484;2023-04-12T12:58:54;0.80;;;0.40;;
43664;SDS011;29263;48.172;11.484;2023-04-12T13:01:31;2.55;;;0.80;;
43664;SDS011;29263;48.172;11.484;2023-04-12T13:03:57;1.50;;;0.37;;
43664;SDS011;29263;48.172;11.484;2023-04-12T13:06:23;1.40;;;0.40;;
43664;SDS011;29263;48.172;11.484;2023-04-12T13:08:52;1.35;;;0.60;;
43664;SDS011;29263;48.172;11.484;2023-04-12T13:11:19;0.25;;;0.20;;
43664;SDS011;29263;48.172;11.484;2023-04-12T13:13:45;1.55;;;0.32;;
43664;SDS011;29263;48.172;11.484;2023-04-12T13:16:10;1.40;;;0.47;;
43664;SDS011;29263;48.172;11.484;2023-04-12T13:18:39;3.20;;;0.32;;
43664;SDS011;29263;48.172;11.484;2023-04-12T13:21:05;0.50;;;0.30;;
43664;SDS011;29263;48.172;11.484;2023-04-12T13:23:31;0.82;;;0.40;;
43664;SDS011;29263;48.172;11.484;2023-04-12T13:25:57;2.30;;;0.40;;
43664;SDS011;29263;48.172;11.484;2023-04-12T13:28:23;3.45;;;0.73;;
43664;SDS011;29263;48.172;11.484;2023-04-12T13:30:48;0.90;;;0.30;;
43664;SDS011;29263;48.172;11.484;2023-04-12T13:33:14;2.00;;;0.40;;
43664;SDS011;29263;48.172;11.484;2023-04-12T13:35:40;1.10;;;0.50;;
43664;SDS011;29263;48.172;11.484;2023-04-12T13:38:05;0.90;;;0.43;;
43664;SDS011;29263;48.172;11.484;2023-04-12T13:40:31;2.50;;;0.68;;
43664;SDS011;29263;48.172;11.484;2023-04-12T13:42:56;2.00;;;0.50;;
43664;SDS011;29263;48.172;11.484;2023-04-12T13:45:22;1.45;;;0.32;;
43664;SDS011;29263;48.172;11.484;2023-04-12T13:47:48;1.15;;;0.35;;
43664;SDS011;29263;48.172;11.484;2023-04-12T13:50:13;1.85;;;0.57;;
43664;SDS011;29263;48.172;11.484;2023-04-12T13:52:39;1.25;;;0.40;;
43664;SDS011;29263;48.172;11.484;2023-04-12T13:55:05;0.93;;;0.60;;
43664;SDS011;29263;48.172;11.484;2023-04-12T13:57:32;1.33;;;0.60;;
43664;SDS011;29263;48.172;11.484;2023-04-12T13:59:58;0.90;;;0.40;;
43664;SDS011;29263;48.172;11.484;2023-04-12T14:02:24;2.60;;;0.40;;
43664;SDS011;29263;48.172;11.484;2023-04-12T14:04:51;1.10;;;0.35;;
43664;SDS011;29263;48.172;11.484;2023-04-12T14:07:17;1.50;;;0.40;;
43664;SDS011;29263;48.172;11.484;2023-04-12T14:09:43;1.00;;;0.60;;
43664;SDS011;29263;48.172;11.484;2023-04-12T14:12:09;1.17;;;0.60;;
43664;SDS011;29263;48.172;11.484;2023-04-12T14:14:35;1.35;;;0.55;;
43664;SDS011;29263;48.172;11.484;2023-04-12T14:17:00;0.90;;;0.40;;
43664;SDS011;29263;48.172;11.484;2023-04-12T14:19:27;5.50;;;0.50;;
43664;SDS011;29263;48.172;11.484;2023-04-12T14:21:53;0.60;;;0.40;;
43664;SDS011;29263;48.172;11.484;2023-04-12T14:24:19;0.90;;;0.52;;
43664;SDS011;29263;48.172;11.484;2023-04-12T14:26:45;1.33;;;0.50;;
43664;SDS011;29263;48.172;11.484;2023-04-12T14:29:11;1.98;;;0.68;;
43664;SDS011;29263;48.172;11.484;2023-04-12T14:31:37;2.83;;;0.90;;
43664;SDS011;29263;48.172;11.484;2023-04-12T14:34:03;0.90;;;0.60;;
43664;SDS011;29263;48.172;11.484;2023-04-12T14:36:29;0.98;;;0.55;;
43664;SDS011;29263;48.172;11.484;2023-04-12T14:38:57;2.08;;;0.52;;
43664;SDS011;29263;48.172;11.484;2023-04-12T14:41:25;0.95;;;0.50;;
43664;SDS011;29263;48.172;11.484;2023-04-12T14:43:51;1.20;;;0.30;;
43664;SDS011;29263;48.172;11.484;2023-04-12T14:46:16;1.48;;;0.50;;
43664;SDS011;29263;48.172;11.484;2023-04-12T14:48:42;0.57;;;0.25;;
43664;SDS011;29263;48.172;11.484;2023-04-12T14:51:11;0.57;;;0.30;;
43664;SDS011;29263;48.172;11.484;2023-04-12T14:53:36;1.48;;;0.43;;
43664;SDS011;29263;48.172;11.484;2023-04-12T14:56:02;0.55;;;0.30;;
43664;SDS011;29263;48.172;11.484;2023-04-12T14:58:28;1.60;;;0.45;;
43664;SDS011;29263;48.172;11.484;2023-04-12T15:00:55;0.50;;;0.30;;
43664;SDS011;29263;48.172;11.484;2023-04-12T15:03:21;0.73;;;0.40;;
43664;SDS011;29263;48.172;11.484;2023-04-12T15:05:47;3.45;;;0.57;;
43664;SDS011;29263;48.172;11.484;2023-04-12T15:08:13;1.77;;;0.30;;
43664;SDS011;29263;48.172;11.484;2023-04-12T15:10:38;0.75;;;0.35;;
43664;SDS011;29263;48.172;11.484;2023-04-12T15:13:04;0.55;;;0.25;;
43664;SDS011;29263;48.172;11.484;2023-04-12T15:15:29;0.40;;;0.20;;
43664;SDS011;29263;48.172;11.484;2023-04-12T15:17:55;1.25;;;0.55;;
43664;SDS011;29263;48.172;11.484;2023-04-12T15:20:20;1.27;;;0.40;;
43664;SDS011;29263;48.172;11.484;2023-04-12T15:22:46;2.05;;;0.60;;
43664;SDS011;29263;48.172;11.484;2023-04-12T15:25:12;0.68;;;0.43;;
43664;SDS011;29263;48.172;11.484;2023-04-12T15:27:38;0.63;;;0.38;;
43664;SDS011;29263;48.172;11.484;2023-04-12T15:30:04;0.57;;;0.30;;
43664;SDS011;29263;48.172;11.484;2023-04-12T15:32:33;1.15;;;0.40;;